sensor_id;sensor_type;location;lat;lon;timestamp;pressure;altitude;pressure_sealevel;temperature;humidity
84289;BME280;75147;50.294;18.660;2024-03-22T00:01:42;99369.00;;;10.77;71.55
84289;BME280;75147;50.294;18.660;2024-03-22T00:04:07;99366.41;;;10.77;71.88
84289;BME280;75147;50.294;18.660;2024-03-22T00:06:32;99362.03;;;10.77;72.10
84289;BME280;75147;50.294;18.660;2024-03-22T00:08:58;99362.88;;;10.78;72.55
84289;BME280;75147;50.294;18.660;2024-03-22T00:11:23;99360.97;;;10.80;72.50
84289;BME280;75147;50.294;18.660;2024-03-22T00:13:48;99358.28;;;10.82;72.46
84289;BME280;75147;50.294;18.660;2024-03-22T00:16:14;99352.94;;;10.83;73.02
84289;BME280;75147;50.294;18.660;2024-03-22T00:18:39;99355.44;;;10.85;72.73
84289;BME280;75147;50.294;18.660;2024-03-22T00:21:04;99361.34;;;10.87;73.13
84289;BME280;75147;50.294;18.660;2024-03-22T00:23:30;99365.59;;;10.88;73.52
84289;BME280;75147;50.294;18.660;2024-03-22T00:25:56;99362.06;;;10.89;73.65
84289;BME280;75147;50.294;18.660;2024-03-22T00:28:21;99361.22;;;10.88;73.74
84289;BME280;75147;50.294;18.660;2024-03-22T00:30:47;99360.41;;;10.88;73.32
84289;BME280;75147;50.294;18.660;2024-03-22T00:33:12;99356.16;;;10.87;74.37
84289;BME280;75147;50.294;18.660;2024-03-22T00:35:37;99362.28;;;10.86;73.91
84289;BME280;75147;50.294;18.660;2024-03-22T00:38:03;99352.00;;;10.84;74.16
84289;BME280;75147;50.294;18.660;2024-03-22T00:40:28;99356.38;;;10.84;74.31
84289;BME280;75147;50.294;18.660;2024-03-22T00:42:54;99352.16;;;10.83;74.55
84289;BME280;75147;50.294;18.660;2024-03-22T00:45:19;99354.84;;;10.81;74.73
84289;BME280;75147;50.294;18.660;2024-03-22T00:47:44;99355.78;;;10.80;74.79
84289;BME280;75147;50.294;18.660;2024-03-22T00:50:10;99346.34;;;10.79;75.19
84289;BME280;75147;50.294;18.660;2024-03-22T00:52:35;99352.47;;;10.78;75.53
84289;BME280;75147;50.294;18.660;2024-03-22T00:55:00;99348.34;;;10.75;74.79
84289;BME280;75147;50.294;18.660;2024-03-22T00:57:26;99351.91;;;10.74;75.73
84289;BME280;75147;50.294;18.660;2024-03-22T00:59:51;99346.91;;;10.71;74.66
84289;BME280;75147;50.294;18.660;2024-03-22T01:02:16;99348.94;;;10.68;75.17
84289;BME280;75147;50.294;18.660;2024-03-22T01:04:42;99355.91;;;10.67;74.96
84289;BME280;75147;50.294;18.660;2024-03-22T01:07:07;99353.50;;;10.64;75.13
84289;BME280;75147;50.294;18.660;2024-03-22T01:09:33;99354.44;;;10.63;76.16
84289;BME280;75147;50.294;18.660;2024-03-22T01:11:58;99357.19;;;10.62;75.32
84289;BME280;75147;50.294;18.660;2024-03-22T01:14:24;99360.72;;;10.61;75.39
84289;BME280;75147;50.294;18.660;2024-03-22T01:16:50;99355.53;;;10.61;76.01
84289;BME280;75147;50.294;18.660;2024-03-22T01:19:15;99352.22;;;10.59;76.05
84289;BME280;75147;50.294;18.660;2024-03-22T01:21:41;99347.13;;;10.57;76.30
84289;BME280;75147;50.294;18.660;2024-03-22T01:24:06;99351.63;;;10.55;76.59
84289;BME280;75147;50.294;18.660;2024-03-22T01:26:31;99358.59;;;10.55;75.98
84289;BME280;75147;50.294;18.660;2024-03-22T01:28:57;99363.06;;;10.53;76.35
84289;BME280;75147;50.294;18.660;2024-03-22T01:31:22;99356.22;;;10.52;76.54
84289;BME280;75147;50.294;18.660;2024-03-22T01:33:47;99352.94;;;10.50;76.68
84289;BME280;75147;50.294;18.660;2024-03-22T01:36:13;99368.50;;;10.50;76.24
84289;BME280;75147;50.294;18.660;2024-03-22T01:38:38;99370.38;;;10.48;77.31
84289;BME280;75147;50.294;18.660;2024-03-22T01:41:03;99359.28;;;10.46;77.35
84289;BME280;75147;50.294;18.660;2024-03-22T01:43:29;99360.09;;;10.46;77.16
84289;BME280;75147;50.294;18.660;2024-03-22T01:45:54;99360.22;;;10.45;77.07
84289;BME280;75147;50.294;18.660;2024-03-22T01:48:20;99352.56;;;10.43;77.39
84289;BME280;75147;50.294;18.660;2024-03-22T01:50:45;99352.66;;;10.42;77.04
84289;BME280;75147;50.294;18.660;2024-03-22T01:53:11;99357.13;;;10.39;77.64
84289;BME280;75147;50.294;18.660;2024-03-22T01:55:37;99360.81;;;10.37;77.87
84289;BME280;75147;50.294;18.660;2024-03-22T01:58:03;99355.72;;;10.35;78.12
84289;BME280;75147;50.294;18.660;2024-03-22T02:00:29;99356.75;;;10.33;77.63
84289;BME280;75147;50.294;18.660;2024-03-22T02:02:55;99354.28;;;10.31;77.57
84289;BME280;75147;50.294;18.660;2024-03-22T02:05:21;99360.44;;;10.30;77.97
84289;BME280;75147;50.294;18.660;2024-03-22T02:07:47;99363.03;;;10.30;77.64
84289;BME280;75147;50.294;18.660;2024-03-22T02:10:13;99364.06;;;10.28;78.29
84289;BME280;75147;50.294;18.660;2024-03-22T02:12:40;99363.44;;;10.24;78.09
84289;BME280;75147;50.294;18.660;2024-03-22T02:15:06;99359.22;;;10.23;77.94
84289;BME280;75147;50.294;18.660;2024-03-22T02:17:32;99361.09;;;10.21;78.85
84289;BME280;75147;50.294;18.660;2024-03-22T02:19:58;99363.81;;;10.20;78.72
84289;BME280;75147;50.294;18.660;2024-03-22T02:22:24;99362.13;;;10.19;78.83
84289;BME280;75147;50.294;18.660;2024-03-22T02:24:49;99369.25;;;10.17;78.57
84289;BME280;75147;50.294;18.660;2024-03-22T02:27:15;99374.50;;;10.15;78.90
84289;BME280;75147;50.294;18.660;2024-03-22T02:29:40;99369.41;;;10.14;78.68
84289;BME280;75147;50.294;18.660;2024-03-22T02:32:06;99363.50;;;10.12;78.82
84289;BME280;75147;50.294;18.660;2024-03-22T02:34:31;99366.00;;;10.13;79.83
84289;BME280;75147;50.294;18.660;2024-03-22T02:36:57;99357.47;;;10.11;79.30
84289;BME280;75147;50.294;18.660;2024-03-22T02:39:22;99360.06;;;10.11;78.75
84289;BME280;75147;50.294;18.660;2024-03-22T02:41:47;99366.22;;;10.10;79.71
84289;BME280;75147;50.294;18.660;2024-03-22T02:44:13;99360.22;;;10.10;79.36
84289;BME280;75147;50.294;18.660;2024-03-22T02:46:38;99356.88;;;10.08;79.11
84289;BME280;75147;50.294;18.660;2024-03-22T02:49:03;99359.59;;;10.06;79.92
84289;BME280;75147;50.294;18.660;2024-03-22T02:51:29;99353.56;;;10.06;79.39
84289;BME280;75147;50.294;18.660;2024-03-22T02:53:54;99346.97;;;10.02;79.69
84289;BME280;75147;50.294;18.660;2024-03-22T02:56:19;99354.84;;;10.00;79.47
84289;BME280;75147;50.294;18.660;2024-03-22T02:58:45;99353.19;;;9.99;79.98
84289;BME280;75147;50.294;18.660;2024-03-22T03:01:10;99351.66;;;9.96;80.31
84289;BME280;75147;50.294;18.660;2024-03-22T03:03:36;99350.84;;;9.96;79.87
84289;BME280;75147;50.294;18.660;2024-03-22T03:06:01;99354.56;;;9.92;79.78
84289;BME280;75147;50.294;18.660;2024-03-22T03:08:27;99350.34;;;9.91;80.00
84289;BME280;75147;50.294;18.660;2024-03-22T03:10:52;99349.53;;;9.90;80.33
84289;BME280;75147;50.294;18.660;2024-03-22T03:13:17;99345.38;;;9.88;80.63
84289;BME280;75147;50.294;18.660;2024-03-22T03:15:43;99348.06;;;9.86;80.34
84289;BME280;75147;50.294;18.660;2024-03-22T03:18:08;99345.56;;;9.85;80.54
84289;BME280;75147;50.294;18.660;2024-03-22T03:20:34;99345.81;;;9.82;80.85
84289;BME280;75147;50.294;18.660;2024-03-22T03:22:59;99339.91;;;9.80;80.54
84289;BME280;75147;50.294;18.660;2024-03-22T03:25:25;99338.25;;;9.79;80.85
84289;BME280;75147;50.294;18.660;2024-03-22T03:27:51;99337.53;;;9.77;80.87
84289;BME280;75147;50.294;18.660;2024-03-22T03:30:17;99342.72;;;9.77;80.82
84289;BME280;75147;50.294;18.660;2024-03-22T03:32:42;99340.34;;;9.74;80.97
84289;BME280;75147;50.294;18.660;2024-03-22T03:35:08;99333.50;;;9.73;81.26
84289;BME280;75147;50.294;18.660;2024-03-22T03:37:33;99337.03;;;9.72;81.47
84289;BME280;75147;50.294;18.660;2024-03-22T03:39:58;99334.66;;;9.69;80.86
84289;BME280;75147;50.294;18.660;2024-03-22T03:42:24;99351.16;;;9.68;81.16
84289;BME280;75147;50.294;18.660;2024-03-22T03:44:49;99340.41;;;9.61;80.62
84289;BME280;75147;50.294;18.660;2024-03-22T03:47:15;99335.31;;;9.59;80.18
84289;BME280;75147;50.294;18.660;2024-03-22T03:49:40;99337.41;;;9.54;80.05
84289;BME280;75147;50.294;18.660;2024-03-22T03:52:05;99333.16;;;9.53;79.78
84289;BME280;75147;50.294;18.660;2024-03-22T03:54:31;99326.66;;;9.48;79.83
84289;BME280;75147;50.294;18.660;2024-03-22T03:56:56;99335.47;;;9.45;79.84
84289;BME280;75147;50.294;18.660;2024-03-22T03:59:22;99328.84;;;9.41;80.00
84289;BME280;75147;50.294;18.660;2024-03-22T04:01:47;99328.56;;;9.33;79.45
84289;BME280;75147;50.294;18.660;2024-03-22T04:04:12;99325.28;;;9.31;79.18
84289;BME280;75147;50.294;18.660;2024-03-22T04:06:38;99335.09;;;9.26;79.18
84289;BME280;75147;50.294;18.660;2024-03-22T04:09:03;99328.50;;;9.22;78.24
84289;BME280;75147;50.294;18.660;2024-03-22T04:11:30;99320.91;;;9.19;78.50
84289;BME280;75147;50.294;18.660;2024-03-22T04:13:55;99322.09;;;9.15;78.19
84289;BME280;75147;50.294;18.660;2024-03-22T04:16:20;99320.44;;;9.14;78.11
84289;BME280;75147;50.294;18.660;2024-03-22T04:18:46;99302.63;;;9.09;77.91
84289;BME280;75147;50.294;18.660;2024-03-22T04:21:11;99295.19;;;9.05;77.66
84289;BME280;75147;50.294;18.660;2024-03-22T04:23:37;99301.28;;;9.04;77.88
84289;BME280;75147;50.294;18.660;2024-03-22T04:26:02;99315.19;;;9.03;77.66
84289;BME280;75147;50.294;18.660;2024-03-22T04:28:28;99316.19;;;9.00;77.69
84289;BME280;75147;50.294;18.660;2024-03-22T04:30:58;99318.78;;;9.00;78.06
84289;BME280;75147;50.294;18.660;2024-03-22T04:33:24;99312.09;;;8.98;77.62
84289;BME280;75147;50.294;18.660;2024-03-22T04:35:50;99319.13;;;8.96;77.27
84289;BME280;75147;50.294;18.660;2024-03-22T04:38:15;99316.63;;;8.94;76.74
84289;BME280;75147;50.294;18.660;2024-03-22T04:40:41;99310.75;;;8.92;76.60
84289;BME280;75147;50.294;18.660;2024-03-22T04:43:06;99322.88;;;8.92;76.33
84289;BME280;75147;50.294;18.660;2024-03-22T04:45:32;99332.41;;;8.91;76.70
84289;BME280;75147;50.294;18.660;2024-03-22T04:47:57;99330.84;;;8.89;76.23
84289;BME280;75147;50.294;18.660;2024-03-22T04:50:22;99341.19;;;8.89;75.96
84289;BME280;75147;50.294;18.660;2024-03-22T04:52:48;99336.13;;;8.87;75.47
84289;BME280;75147;50.294;18.660;2024-03-22T04:55:13;99341.44;;;8.86;75.30
84289;BME280;75147;50.294;18.660;2024-03-22T04:57:38;99352.81;;;8.83;75.33
84289;BME280;75147;50.294;18.660;2024-03-22T05:00:04;99354.38;;;8.86;74.89
84289;BME280;75147;50.294;18.660;2024-03-22T05:02:32;99351.16;;;8.82;74.62
84289;BME280;75147;50.294;18.660;2024-03-22T05:04:57;99355.50;;;8.82;74.82
84289;BME280;75147;50.294;18.660;2024-03-22T05:07:23;99354.78;;;8.79;74.34
84289;BME280;75147;50.294;18.660;2024-03-22T05:09:48;99354.78;;;8.79;74.60
84289;BME280;75147;50.294;18.660;2024-03-22T05:12:13;99358.31;;;8.78;74.61
84289;BME280;75147;50.294;18.660;2024-03-22T05:14:39;99352.41;;;8.76;74.04
84289;BME280;75147;50.294;18.660;2024-03-22T05:17:04;99356.75;;;8.76;74.32
84289;BME280;75147;50.294;18.660;2024-03-22T05:19:30;99367.22;;;8.74;73.89
84289;BME280;75147;50.294;18.660;2024-03-22T05:21:56;99356.84;;;8.74;73.83
84289;BME280;75147;50.294;18.660;2024-03-22T05:24:21;99358.50;;;8.75;74.22
84289;BME280;75147;50.294;18.660;2024-03-22T05:26:47;99369.69;;;8.76;73.52
84289;BME280;75147;50.294;18.660;2024-03-22T05:29:12;99356.84;;;8.74;73.59
84289;BME280;75147;50.294;18.660;2024-03-22T05:31:46;99366.38;;;8.74;73.34
84289;BME280;75147;50.294;18.660;2024-03-22T05:34:13;99363.69;;;8.75;73.81
84289;BME280;75147;50.294;18.660;2024-03-22T05:36:39;99360.19;;;8.76;73.44
84289;BME280;75147;50.294;18.660;2024-03-22T05:39:05;99359.34;;;8.76;73.89
84289;BME280;75147;50.294;18.660;2024-03-22T05:41:30;99354.16;;;8.76;73.64
84289;BME280;75147;50.294;18.660;2024-03-22T05:43:56;99354.16;;;8.76;73.43
84289;BME280;75147;50.294;18.660;2024-03-22T05:46:21;99346.50;;;8.74;73.62
84289;BME280;75147;50.294;18.660;2024-03-22T05:48:46;99353.44;;;8.74;73.77
84289;BME280;75147;50.294;18.660;2024-03-22T05:51:13;99353.44;;;8.74;73.72
84289;BME280;75147;50.294;18.660;2024-03-22T05:53:39;99349.91;;;8.75;73.87
84289;BME280;75147;50.294;18.660;2024-03-22T05:56:05;99349.31;;;8.71;74.09
84289;BME280;75147;50.294;18.660;2024-03-22T05:58:30;99344.13;;;8.71;73.83
84289;BME280;75147;50.294;18.660;2024-03-22T06:00:56;99345.88;;;8.71;74.13
84289;BME280;75147;50.294;18.660;2024-03-22T06:03:21;99349.19;;;8.73;73.83
84289;BME280;75147;50.294;18.660;2024-03-22T06:05:46;99339.88;;;8.70;74.13
84289;BME280;75147;50.294;18.660;2024-03-22T06:08:13;99339.03;;;8.70;74.46
84289;BME280;75147;50.294;18.660;2024-03-22T06:10:38;99343.19;;;8.72;74.20
84289;BME280;75147;50.294;18.660;2024-03-22T06:13:03;99344.13;;;8.71;74.22
84289;BME280;75147;50.294;18.660;2024-03-22T06:15:29;99346.72;;;8.71;74.66
84289;BME280;75147;50.294;18.660;2024-03-22T06:17:54;99348.38;;;8.72;75.09
84289;BME280;75147;50.294;18.660;2024-03-22T06:20:20;99345.88;;;8.71;74.80
84289;BME280;75147;50.294;18.660;2024-03-22T06:22:45;99352.72;;;8.72;74.93
84289;BME280;75147;50.294;18.660;2024-03-22T06:25:10;99346.72;;;8.71;75.01
84289;BME280;75147;50.294;18.660;2024-03-22T06:27:36;99349.31;;;8.71;75.29
84289;BME280;75147;50.294;18.660;2024-03-22T06:30:01;99341.53;;;8.71;75.08
84289;BME280;75147;50.294;18.660;2024-03-22T06:32:26;99346.72;;;8.71;75.32
84289;BME280;75147;50.294;18.660;2024-03-22T06:34:52;99343.28;;;8.71;75.35
84289;BME280;75147;50.294;18.660;2024-03-22T06:37:17;99341.63;;;8.70;75.00
84289;BME280;75147;50.294;18.660;2024-03-22T06:39:42;99350.00;;;8.73;75.43
84289;BME280;75147;50.294;18.660;2024-03-22T06:42:08;99354.25;;;8.74;75.18
84289;BME280;75147;50.294;18.660;2024-03-22T06:44:33;99342.97;;;8.75;75.48
84289;BME280;75147;50.294;18.660;2024-03-22T06:46:58;99342.88;;;8.77;75.66
84289;BME280;75147;50.294;18.660;2024-03-22T06:49:24;99352.31;;;8.78;75.69
84289;BME280;75147;50.294;18.660;2024-03-22T06:51:50;99346.19;;;8.79;75.01
84289;BME280;75147;50.294;18.660;2024-03-22T06:54:15;99347.81;;;8.80;75.29
84289;BME280;75147;50.294;18.660;2024-03-22T06:56:41;99342.47;;;8.83;75.11
84289;BME280;75147;50.294;18.660;2024-03-22T06:59:07;99350.22;;;8.83;75.64
84289;BME280;75147;50.294;18.660;2024-03-22T07:01:32;99342.34;;;8.85;75.59
84289;BME280;75147;50.294;18.660;2024-03-22T07:03:57;99342.22;;;8.86;75.83
84289;BME280;75147;50.294;18.660;2024-03-22T07:06:23;99342.97;;;8.88;74.98
84289;BME280;75147;50.294;18.660;2024-03-22T07:08:48;99340.28;;;8.90;75.70
84289;BME280;75147;50.294;18.660;2024-03-22T07:11:13;99347.13;;;8.91;75.25
84289;BME280;75147;50.294;18.660;2024-03-22T07:13:39;99348.66;;;8.93;75.29
84289;BME280;75147;50.294;18.660;2024-03-22T07:16:04;99349.47;;;8.94;75.79
84289;BME280;75147;50.294;18.660;2024-03-22T07:18:30;99339.34;;;8.91;75.45
84289;BME280;75147;50.294;18.660;2024-03-22T07:20:55;99347.94;;;8.91;75.48
84289;BME280;75147;50.294;18.660;2024-03-22T07:23:23;99334.88;;;8.93;75.67
84289;BME280;75147;50.294;18.660;2024-03-22T07:25:48;99338.00;;;8.98;75.47
84289;BME280;75147;50.294;18.660;2024-03-22T07:28:14;99337.84;;;8.99;75.79
84289;BME280;75147;50.294;18.660;2024-03-22T07:30:40;99339.66;;;8.99;75.62
84289;BME280;75147;50.294;18.660;2024-03-22T07:33:05;99336.84;;;9.02;75.91
84289;BME280;75147;50.294;18.660;2024-03-22T07:35:31;99336.50;;;9.06;75.72
84289;BME280;75147;50.294;18.660;2024-03-22T07:37:56;99340.66;;;9.09;75.31
84289;BME280;75147;50.294;18.660;2024-03-22T07:40:22;99341.50;;;9.09;75.45
84289;BME280;75147;50.294;18.660;2024-03-22T07:42:47;99341.59;;;9.08;75.20
84289;BME280;75147;50.294;18.660;2024-03-22T07:45:12;99331.31;;;9.06;75.73
84289;BME280;75147;50.294;18.660;2024-03-22T07:47:38;99332.16;;;9.07;75.61
84289;BME280;75147;50.294;18.660;2024-03-22T07:50:04;99336.31;;;9.09;75.26
84289;BME280;75147;50.294;18.660;2024-03-22T07:52:29;99336.22;;;9.11;75.66
84289;BME280;75147;50.294;18.660;2024-03-22T07:54:55;99336.72;;;9.16;75.61
84289;BME280;75147;50.294;18.660;2024-03-22T07:57:21;99324.25;;;9.21;75.72
84289;BME280;75147;50.294;18.660;2024-03-22T07:59:46;99325.56;;;9.27;75.46
84289;BME280;75147;50.294;18.660;2024-03-22T08:02:12;99324.75;;;9.26;75.39
84289;BME280;75147;50.294;18.660;2024-03-22T08:04:38;99325.47;;;9.28;75.11
84289;BME280;75147;50.294;18.660;2024-03-22T08:07:03;99332.41;;;9.28;74.87
84289;BME280;75147;50.294;18.660;2024-03-22T08:09:29;99322.88;;;9.28;74.88
84289;BME280;75147;50.294;18.660;2024-03-22T08:11:54;99326.09;;;9.32;74.60
84289;BME280;75147;50.294;18.660;2024-03-22T08:14:19;99320.69;;;9.35;74.36
84289;BME280;75147;50.294;18.660;2024-03-22T08:16:45;99317.66;;;9.41;74.15
84289;BME280;75147;50.294;18.660;2024-03-22T08:19:10;99322.50;;;9.45;74.62
84289;BME280;75147;50.294;18.660;2024-03-22T08:21:35;99320.75;;;9.46;74.42
84289;BME280;75147;50.294;18.660;2024-03-22T08:24:01;99324.06;;;9.48;74.16
84289;BME280;75147;50.294;18.660;2024-03-22T08:26:27;99324.16;;;9.46;74.95
84289;BME280;75147;50.294;18.660;2024-03-22T08:28:52;99326.75;;;9.46;74.13
84289;BME280;75147;50.294;18.660;2024-03-22T08:31:17;99326.66;;;9.48;74.60
84289;BME280;75147;50.294;18.660;2024-03-22T08:33:46;99327.38;;;9.50;74.96
84289;BME280;75147;50.294;18.660;2024-03-22T08:36:12;99319.25;;;9.54;74.92
84289;BME280;75147;50.294;18.660;2024-03-22T08:38:37;99323.41;;;9.57;74.90
84289;BME280;75147;50.294;18.660;2024-03-22T08:41:03;99320.47;;;9.62;75.04
84289;BME280;75147;50.294;18.660;2024-03-22T08:43:28;99335.25;;;9.72;74.78
84289;BME280;75147;50.294;18.660;2024-03-22T08:45:54;99322.91;;;9.76;73.86
84289;BME280;75147;50.294;18.660;2024-03-22T08:48:20;99319.25;;;9.78;73.03
84289;BME280;75147;50.294;18.660;2024-03-22T08:50:46;99322.38;;;9.83;73.33
84289;BME280;75147;50.294;18.660;2024-03-22T08:53:11;99313.41;;;9.87;73.47
84289;BME280;75147;50.294;18.660;2024-03-22T08:55:36;99322.41;;;9.94;73.20
84289;BME280;75147;50.294;18.660;2024-03-22T08:58:03;99324.16;;;9.94;73.15
84289;BME280;75147;50.294;18.660;2024-03-22T09:00:29;99330.19;;;9.94;72.66
84289;BME280;75147;50.294;18.660;2024-03-22T09:02:54;99325.56;;;9.98;72.86
84289;BME280;75147;50.294;18.660;2024-03-22T09:05:20;99318.03;;;9.95;71.72
84289;BME280;75147;50.294;18.660;2024-03-22T09:07:45;99318.97;;;9.94;71.64
84289;BME280;75147;50.294;18.660;2024-03-22T09:10:11;99314.25;;;9.99;72.48
84289;BME280;75147;50.294;18.660;2024-03-22T09:12:36;99319.00;;;10.05;71.59
84289;BME280;75147;50.294;18.660;2024-03-22T09:15:02;99313.50;;;10.10;71.31
84289;BME280;75147;50.294;18.660;2024-03-22T09:17:27;99301.00;;;10.15;71.05
84289;BME280;75147;50.294;18.660;2024-03-22T09:19:54;99306.59;;;10.21;70.64
84289;BME280;75147;50.294;18.660;2024-03-22T09:22:19;99302.47;;;10.30;71.01
84289;BME280;75147;50.294;18.660;2024-03-22T09:24:45;99288.78;;;10.39;70.59
84289;BME280;75147;50.294;18.660;2024-03-22T09:27:10;99284.31;;;10.52;71.10
84289;BME280;75147;50.294;18.660;2024-03-22T09:29:38;99282.69;;;10.62;70.12
84289;BME280;75147;50.294;18.660;2024-03-22T09:32:04;99281.97;;;10.71;70.10
84289;BME280;75147;50.294;18.660;2024-03-22T09:34:30;99277.72;;;10.70;69.49
84289;BME280;75147;50.294;18.660;2024-03-22T09:36:56;99272.50;;;10.70;68.69
84289;BME280;75147;50.294;18.660;2024-03-22T09:39:22;99277.97;;;10.67;67.89
84289;BME280;75147;50.294;18.660;2024-03-22T09:41:47;99271.69;;;10.70;68.90
84289;BME280;75147;50.294;18.660;2024-03-22T09:44:14;99274.78;;;10.75;69.00
84289;BME280;75147;50.294;18.660;2024-03-22T09:46:43;99270.88;;;10.81;68.73
84289;BME280;75147;50.294;18.660;2024-03-22T09:49:10;99258.22;;;10.87;68.08
84289;BME280;75147;50.294;18.660;2024-03-22T09:51:41;99263.78;;;10.94;67.91
84289;BME280;75147;50.294;18.660;2024-03-22T09:54:09;99257.16;;;11.01;67.58
84289;BME280;75147;50.294;18.660;2024-03-22T09:56:35;99271.06;;;11.11;68.46
84289;BME280;75147;50.294;18.660;2024-03-22T09:59:02;99262.56;;;11.09;67.38
84289;BME280;75147;50.294;18.660;2024-03-22T10:01:28;99252.63;;;11.14;67.10
84289;BME280;75147;50.294;18.660;2024-03-22T10:03:54;99248.72;;;11.19;67.18
84289;BME280;75147;50.294;18.660;2024-03-22T10:06:20;99247.72;;;11.32;66.78
84289;BME280;75147;50.294;18.660;2024-03-22T10:08:45;99245.72;;;11.35;66.31
84289;BME280;75147;50.294;18.660;2024-03-22T10:11:11;99241.09;;;11.39;66.11
84289;BME280;75147;50.294;18.660;2024-03-22T10:13:37;99238.50;;;11.39;66.53
84289;BME280;75147;50.294;18.660;2024-03-22T10:16:03;99243.31;;;11.43;66.69
84289;BME280;75147;50.294;18.660;2024-03-22T10:18:28;99240.94;;;11.51;65.39
84289;BME280;75147;50.294;18.660;2024-03-22T10:21:04;99232.22;;;11.62;64.90
84289;BME280;75147;50.294;18.660;2024-03-22T10:23:30;99245.13;;;11.75;64.27
84289;BME280;75147;50.294;18.660;2024-03-22T10:25:59;99239.97;;;11.84;64.27
84289;BME280;75147;50.294;18.660;2024-03-22T10:28:26;99238.13;;;11.96;64.29
84289;BME280;75147;50.294;18.660;2024-03-22T10:30:52;99229.19;;;12.10;63.27
84289;BME280;75147;50.294;18.660;2024-03-22T10:33:21;99228.84;;;12.24;63.92
84289;BME280;75147;50.294;18.660;2024-03-22T10:35:54;99221.34;;;12.30;62.56
84289;BME280;75147;50.294;18.660;2024-03-22T10:38:20;99226.16;;;12.35;62.70
84289;BME280;75147;50.294;18.660;2024-03-22T10:40:46;99221.53;;;12.38;62.50
84289;BME280;75147;50.294;18.660;2024-03-22T10:43:15;99218.66;;;12.42;62.13
84289;BME280;75147;50.294;18.660;2024-03-22T10:45:41;99215.78;;;12.45;61.52
84289;BME280;75147;50.294;18.660;2024-03-22T10:48:11;99214.44;;;12.50;61.63
84289;BME280;75147;50.294;18.660;2024-03-22T10:50:41;99209.09;;;12.52;62.21
84289;BME280;75147;50.294;18.660;2024-03-22T10:53:13;99210.75;;;12.53;62.26
84289;BME280;75147;50.294;18.660;2024-03-22T10:55:42;99201.16;;;12.53;61.90
84289;BME280;75147;50.294;18.660;2024-03-22T10:58:15;99197.34;;;12.57;61.81
84289;BME280;75147;50.294;18.660;2024-03-22T11:00:42;99194.63;;;12.68;62.03
84289;BME280;75147;50.294;18.660;2024-03-22T11:03:08;99201.78;;;12.76;62.44
84289;BME280;75147;50.294;18.660;2024-03-22T11:05:33;99197.81;;;12.82;62.08
84289;BME280;75147;50.294;18.660;2024-03-22T11:08:03;99187.00;;;12.86;61.61
84289;BME280;75147;50.294;18.660;2024-03-22T11:10:30;99187.00;;;12.96;61.27
84289;BME280;75147;50.294;18.660;2024-03-22T11:13:07;99186.31;;;13.03;61.38
84289;BME280;75147;50.294;18.660;2024-03-22T11:15:34;99181.41;;;13.10;61.14
84289;BME280;75147;50.294;18.660;2024-03-22T11:18:00;99184.31;;;13.16;60.03
84289;BME280;75147;50.294;18.660;2024-03-22T11:20:26;99171.25;;;13.26;59.88
84289;BME280;75147;50.294;18.660;2024-03-22T11:22:52;99167.31;;;13.32;59.84
84289;BME280;75147;50.294;18.660;2024-03-22T11:25:18;99158.22;;;13.36;59.25
84289;BME280;75147;50.294;18.660;2024-03-22T11:27:45;99167.59;;;13.38;59.34
84289;BME280;75147;50.294;18.660;2024-03-22T11:30:10;99159.34;;;13.43;57.56
84289;BME280;75147;50.294;18.660;2024-03-22T11:32:36;99162.63;;;13.45;56.77
84289;BME280;75147;50.294;18.660;2024-03-22T11:35:09;99153.28;;;13.42;55.53
84289;BME280;75147;50.294;18.660;2024-03-22T11:37:35;99146.28;;;13.43;55.52
84289;BME280;75147;50.294;18.660;2024-03-22T11:40:01;99140.09;;;13.34;55.55
84289;BME280;75147;50.294;18.660;2024-03-22T11:42:29;99147.09;;;13.34;56.21
84289;BME280;75147;50.294;18.660;2024-03-22T11:44:55;99149.59;;;13.26;56.19
84289;BME280;75147;50.294;18.660;2024-03-22T11:47:21;99142.47;;;13.18;56.91
84289;BME280;75147;50.294;18.660;2024-03-22T11:49:46;99149.97;;;13.11;56.99
84289;BME280;75147;50.294;18.660;2024-03-22T11:52:11;99140.63;;;13.09;57.20
84289;BME280;75147;50.294;18.660;2024-03-22T11:54:39;99145.16;;;13.07;57.33
84289;BME280;75147;50.294;18.660;2024-03-22T11:57:05;99134.59;;;13.08;58.00
84289;BME280;75147;50.294;18.660;2024-03-22T11:59:30;99135.28;;;13.10;58.00
84289;BME280;75147;50.294;18.660;2024-03-22T12:01:56;99130.47;;;13.06;58.26
84289;BME280;75147;50.294;18.660;2024-03-22T12:04:22;99133.75;;;13.08;57.71
84289;BME280;75147;50.294;18.660;2024-03-22T12:06:48;99141.44;;;13.09;58.17
84289;BME280;75147;50.294;18.660;2024-03-22T12:09:13;99135.69;;;13.06;57.43
84289;BME280;75147;50.294;18.660;2024-03-22T12:11:40;99132.94;;;13.07;57.78
84289;BME280;75147;50.294;18.660;2024-03-22T12:14:05;99131.03;;;13.09;57.67
84289;BME280;75147;50.294;18.660;2024-03-22T12:16:31;99132.53;;;13.12;57.45
84289;BME280;75147;50.294;18.660;2024-03-22T12:18:57;99126.63;;;13.10;56.96
84289;BME280;75147;50.294;18.660;2024-03-22T12:21:23;99133.94;;;13.16;57.08
84289;BME280;75147;50.294;18.660;2024-03-22T12:23:48;99120.75;;;13.18;56.52
84289;BME280;75147;50.294;18.660;2024-03-22T12:26:14;99122.13;;;13.22;56.82
84289;BME280;75147;50.294;18.660;2024-03-22T12:28:39;99110.47;;;13.26;56.48
84289;BME280;75147;50.294;18.660;2024-03-22T12:31:04;99100.31;;;13.32;56.24
84289;BME280;75147;50.294;18.660;2024-03-22T12:33:30;99095.31;;;13.48;56.51
84289;BME280;75147;50.294;18.660;2024-03-22T12:35:55;99081.44;;;13.57;55.56
84289;BME280;75147;50.294;18.660;2024-03-22T12:38:21;99090.63;;;13.62;54.79
84289;BME280;75147;50.294;18.660;2024-03-22T12:40:46;99088.00;;;13.71;54.87
84289;BME280;75147;50.294;18.660;2024-03-22T12:43:12;99086.31;;;13.80;55.18
84289;BME280;75147;50.294;18.660;2024-03-22T12:45:37;99079.84;;;13.84;54.92
84289;BME280;75147;50.294;18.660;2024-03-22T12:48:03;99069.78;;;13.89;55.22